VLG5LP LESO-LEBL
Flight info
| Callsign | VLG5LP |
|---|---|
| Flight time | 0h 53m |
| Altitude | 30000 |
| Route | PPN M601 RONKO/N0427F300 M601 GRAUS |
| Aircraft | A319/M-SDE3FGHIRWY/LB1 |
Departure
| Time | 2026-05-01 10:17 |
|---|---|
| Airport | San Sebastián Airport (LESO) |
Arrival
| Time | 2026-05-01 11:11 |
|---|---|
| Airport | Josep Tarradellas Barcelona-El Prat Airport (LEBL) |
| Time | Latitude | Longitude | Altitude | Speed | Heading |
|---|---|---|---|---|---|
| 2026-05-01 09:46 | 43.35628 | -1.79242 | 18 ft | 0 kts | 220° |
| 2026-05-01 10:12 | 43.35619 | -1.79237 | 18 ft | 1 kts | 135° |
| 2026-05-01 10:13 | 43.35620 | -1.79223 | 20 ft | 2 kts | 68° |
| 2026-05-01 10:13 | 43.35640 | -1.79199 | 19 ft | 4 kts | 38° |
| 2026-05-01 10:13 | 43.35644 | -1.79168 | 18 ft | 3 kts | 102° |
| 2026-05-01 10:14 | 43.35611 | -1.79121 | 18 ft | 5 kts | 156° |
| 2026-05-01 10:14 | 43.35570 | -1.79149 | 18 ft | 9 kts | 218° |
| 2026-05-01 10:14 | 43.35514 | -1.79209 | 18 ft | 11 kts | 218° |
| 2026-05-01 10:14 | 43.35448 | -1.79282 | 20 ft | 12 kts | 219° |
| 2026-05-01 10:15 | 43.35383 | -1.79355 | 20 ft | 12 kts | 219° |
| 2026-05-01 10:15 | 43.35311 | -1.79433 | 20 ft | 15 kts | 218° |
| 2026-05-01 10:15 | 43.35227 | -1.79525 | 21 ft | 15 kts | 219° |
| 2026-05-01 10:15 | 43.35140 | -1.79621 | 20 ft | 16 kts | 219° |
| 2026-05-01 10:16 | 43.35093 | -1.79699 | 20 ft | 8 kts | 251° |
| 2026-05-01 10:16 | 43.35061 | -1.79748 | 20 ft | 6 kts | 172° |
| 2026-05-01 10:16 | 43.35069 | -1.79698 | 21 ft | 5 kts | 37° |
| 2026-05-01 10:17 | 43.35200 | -1.79554 | 21 ft | 52 kts | 39° |
| 2026-05-01 10:17 | 43.36178 | -1.78476 | 206 ft | 141 kts | 40° |
| 2026-05-01 10:17 | 43.37257 | -1.77522 | 1092 ft | 140 kts | 30° |
| 2026-05-01 10:18 | 43.39082 | -1.76222 | 2125 ft | 166 kts | 29° |
| 2026-05-01 10:18 | 43.40161 | -1.75455 | 2562 ft | 185 kts | 29° |
| 2026-05-01 10:18 | 43.40943 | -1.74893 | 2820 ft | 199 kts | 29° |
| 2026-05-01 10:19 | 43.42336 | -1.74334 | 3150 ft | 223 kts | 356° |
| 2026-05-01 10:19 | 43.43744 | -1.75198 | 3711 ft | 228 kts | 311° |
| 2026-05-01 10:19 | 43.44459 | -1.77104 | 4391 ft | 227 kts | 281° |
| 2026-05-01 10:20 | 43.45027 | -1.82032 | 6485 ft | 226 kts | 274° |
| 2026-05-01 10:20 | 43.45233 | -1.84190 | 7307 ft | 229 kts | 275° |
| 2026-05-01 10:20 | 43.45387 | -1.85661 | 7868 ft | 231 kts | 276° |
| 2026-05-01 10:20 | 43.45633 | -1.87828 | 8700 ft | 234 kts | 276° |
| 2026-05-01 10:21 | 43.45905 | -1.90050 | 9541 ft | 237 kts | 277° |
| 2026-05-01 10:21 | 43.46496 | -1.94571 | 11144 ft | 243 kts | 277° |
| 2026-05-01 10:21 | 43.46695 | -1.96880 | 11918 ft | 243 kts | 263° |
| 2026-05-01 10:22 | 43.45140 | -2.00784 | 13457 ft | 240 kts | 212° |
| 2026-05-01 10:22 | 43.42100 | -2.02747 | 14940 ft | 244 kts | 203° |
| 2026-05-01 10:23 | 43.40561 | -2.03686 | 15645 ft | 247 kts | 204° |
| 2026-05-01 10:23 | 43.37316 | -2.05678 | 16603 ft | 274 kts | 204° |
| 2026-05-01 10:23 | 43.35504 | -2.06794 | 16816 ft | 297 kts | 204° |
| 2026-05-01 10:24 | 43.31221 | -2.07887 | 17152 ft | 344 kts | 166° |
| 2026-05-01 10:24 | 43.27584 | -2.03507 | 18257 ft | 370 kts | 121° |
| 2026-05-01 10:25 | 43.25087 | -1.97321 | 19447 ft | 375 kts | 131° |
| 2026-05-01 10:25 | 43.21039 | -1.92865 | 20700 ft | 376 kts | 149° |
| 2026-05-01 10:26 | 43.18803 | -1.90967 | 21315 ft | 380 kts | 151° |
| 2026-05-01 10:26 | 43.16524 | -1.89106 | 21901 ft | 383 kts | 152° |
| 2026-05-01 10:26 | 43.11904 | -1.85318 | 23089 ft | 391 kts | 151° |
| 2026-05-01 10:27 | 43.07276 | -1.81392 | 24191 ft | 397 kts | 150° |
| 2026-05-01 10:27 | 43.02515 | -1.77474 | 25149 ft | 401 kts | 158° |
| 2026-05-01 10:28 | 42.99903 | -1.76159 | 25633 ft | 400 kts | 167° |
| 2026-05-01 10:28 | 42.94384 | -1.74837 | 26484 ft | 406 kts | 173° |
| 2026-05-01 10:28 | 42.91588 | -1.74226 | 26927 ft | 408 kts | 173° |
| 2026-05-01 10:29 | 42.85978 | -1.72994 | 27805 ft | 414 kts | 173° |
| 2026-05-01 10:29 | 42.83128 | -1.72365 | 28239 ft | 416 kts | 173° |
| 2026-05-01 10:30 | 42.77463 | -1.70489 | 29084 ft | 426 kts | 158° |
| 2026-05-01 10:30 | 42.72585 | -1.65805 | 29912 ft | 439 kts | 135° |
| 2026-05-01 10:31 | 42.69347 | -1.58773 | 30222 ft | 432 kts | 117° |
| 2026-05-01 10:31 | 42.66861 | -1.51642 | 30209 ft | 414 kts | 118° |
| 2026-05-01 10:32 | 42.63141 | -1.41098 | 30214 ft | 412 kts | 118° |
| 2026-05-01 10:33 | 42.58157 | -1.27070 | 30204 ft | 413 kts | 119° |
| 2026-05-01 10:34 | 42.54431 | -1.16584 | 30198 ft | 413 kts | 119° |
| 2026-05-01 10:34 | 42.51921 | -1.09575 | 30191 ft | 414 kts | 119° |
| 2026-05-01 10:35 | 42.48147 | -0.99046 | 30197 ft | 414 kts | 119° |
| 2026-05-01 10:35 | 42.45636 | -0.92021 | 30194 ft | 414 kts | 119° |
| 2026-05-01 10:36 | 42.41861 | -0.81546 | 30202 ft | 414 kts | 119° |
| 2026-05-01 10:37 | 42.39326 | -0.74544 | 30193 ft | 414 kts | 120° |
| 2026-05-01 10:37 | 42.35516 | -0.64039 | 30189 ft | 415 kts | 120° |
| 2026-05-01 10:38 | 42.32980 | -0.57084 | 30203 ft | 416 kts | 120° |
| 2026-05-01 10:38 | 42.30424 | -0.50079 | 30207 ft | 416 kts | 120° |
| 2026-05-01 10:39 | 42.27868 | -0.43067 | 30212 ft | 416 kts | 120° |
| 2026-05-01 10:39 | 42.25307 | -0.36061 | 30216 ft | 416 kts | 120° |
| 2026-05-01 10:40 | 42.22754 | -0.29112 | 30226 ft | 416 kts | 120° |
| 2026-05-01 10:40 | 42.20182 | -0.22129 | 30224 ft | 416 kts | 120° |
| 2026-05-01 10:41 | 42.17609 | -0.15151 | 30219 ft | 416 kts | 120° |
| 2026-05-01 10:41 | 42.15014 | -0.08140 | 29883 ft | 419 kts | 120° |
| 2026-05-01 10:42 | 42.13732 | -0.04683 | 29606 ft | 417 kts | 120° |
| 2026-05-01 10:42 | 42.12440 | -0.01197 | 29325 ft | 415 kts | 120° |
| 2026-05-01 10:42 | 42.11150 | 0.02273 | 29031 ft | 413 kts | 120° |
| 2026-05-01 10:42 | 42.09866 | 0.05725 | 28759 ft | 412 kts | 120° |
| 2026-05-01 10:43 | 42.08585 | 0.09165 | 28486 ft | 410 kts | 120° |
| 2026-05-01 10:43 | 42.07308 | 0.12584 | 28223 ft | 408 kts | 120° |
| 2026-05-01 10:43 | 42.06034 | 0.15988 | 27958 ft | 405 kts | 120° |
| 2026-05-01 10:43 | 42.04779 | 0.19344 | 27609 ft | 400 kts | 120° |
| 2026-05-01 10:44 | 42.03550 | 0.22623 | 27181 ft | 397 kts | 120° |
| 2026-05-01 10:44 | 42.02306 | 0.25937 | 26753 ft | 395 kts | 120° |
| 2026-05-01 10:44 | 42.01073 | 0.29217 | 26332 ft | 392 kts | 120° |
| 2026-05-01 10:44 | 41.99839 | 0.32472 | 25907 ft | 389 kts | 122° |
| 2026-05-01 10:45 | 41.98342 | 0.35449 | 25465 ft | 381 kts | 134° |
| 2026-05-01 10:45 | 41.96488 | 0.37938 | 25056 ft | 374 kts | 144° |
| 2026-05-01 10:45 | 41.94357 | 0.39885 | 24682 ft | 369 kts | 155° |
| 2026-05-01 10:45 | 41.92063 | 0.41394 | 24307 ft | 366 kts | 158° |
| 2026-05-01 10:46 | 41.89770 | 0.42860 | 23932 ft | 365 kts | 158° |
| 2026-05-01 10:46 | 41.87515 | 0.44303 | 23520 ft | 362 kts | 157° |
| 2026-05-01 10:46 | 41.85245 | 0.45757 | 23146 ft | 361 kts | 157° |
| 2026-05-01 10:46 | 41.82983 | 0.47201 | 22776 ft | 359 kts | 157° |
| 2026-05-01 10:47 | 41.80735 | 0.48632 | 22408 ft | 357 kts | 157° |
| 2026-05-01 10:47 | 41.78496 | 0.50056 | 22043 ft | 355 kts | 157° |
| 2026-05-01 10:47 | 41.76268 | 0.51479 | 21674 ft | 354 kts | 156° |
| 2026-05-01 10:47 | 41.74056 | 0.52892 | 21312 ft | 352 kts | 156° |
| 2026-05-01 10:48 | 41.71851 | 0.54299 | 20949 ft | 350 kts | 156° |
| 2026-05-01 10:48 | 41.69692 | 0.55673 | 20591 ft | 348 kts | 156° |
| 2026-05-01 10:48 | 41.67514 | 0.57056 | 20234 ft | 346 kts | 156° |
| 2026-05-01 10:48 | 41.65354 | 0.58426 | 19884 ft | 344 kts | 156° |
| 2026-05-01 10:49 | 41.63193 | 0.59796 | 19526 ft | 342 kts | 156° |
| 2026-05-01 10:49 | 41.61051 | 0.61155 | 19172 ft | 340 kts | 156° |
| 2026-05-01 10:49 | 41.58925 | 0.62515 | 18820 ft | 338 kts | 154° |
| 2026-05-01 10:49 | 41.56985 | 0.64279 | 18460 ft | 338 kts | 140° |
| 2026-05-01 10:50 | 41.55411 | 0.66606 | 18080 ft | 338 kts | 126° |
| 2026-05-01 10:50 | 41.54304 | 0.69319 | 17737 ft | 338 kts | 113° |
| 2026-05-01 10:50 | 41.53585 | 0.72301 | 17393 ft | 337 kts | 108° |
| 2026-05-01 10:50 | 41.52904 | 0.75288 | 17044 ft | 336 kts | 108° |
| 2026-05-01 10:51 | 41.52219 | 0.78259 | 16698 ft | 335 kts | 109° |
| 2026-05-01 10:51 | 41.51531 | 0.81220 | 16356 ft | 334 kts | 109° |
| 2026-05-01 10:51 | 41.50843 | 0.84174 | 16013 ft | 332 kts | 108° |
| 2026-05-01 10:51 | 41.50158 | 0.87111 | 15670 ft | 331 kts | 108° |
| 2026-05-01 10:52 | 41.49477 | 0.90033 | 15329 ft | 329 kts | 109° |
| 2026-05-01 10:52 | 41.48801 | 0.92942 | 14995 ft | 328 kts | 108° |
| 2026-05-01 10:52 | 41.48139 | 0.95799 | 14665 ft | 326 kts | 108° |
| 2026-05-01 10:52 | 41.47472 | 0.98676 | 14329 ft | 324 kts | 108° |
| 2026-05-01 10:53 | 41.46806 | 1.01542 | 13996 ft | 322 kts | 108° |
| 2026-05-01 10:53 | 41.46146 | 1.04386 | 13641 ft | 320 kts | 108° |
| 2026-05-01 10:53 | 41.45490 | 1.07211 | 13315 ft | 318 kts | 108° |
| 2026-05-01 10:53 | 41.44837 | 1.10016 | 12988 ft | 316 kts | 108° |
| 2026-05-01 10:54 | 41.44186 | 1.12796 | 12671 ft | 314 kts | 108° |
| 2026-05-01 10:54 | 41.43535 | 1.15564 | 12342 ft | 311 kts | 108° |
| 2026-05-01 10:54 | 41.42901 | 1.18260 | 12033 ft | 308 kts | 108° |
| 2026-05-01 10:54 | 41.42265 | 1.20971 | 11721 ft | 306 kts | 108° |
| 2026-05-01 10:55 | 41.41633 | 1.23659 | 11412 ft | 303 kts | 108° |
| 2026-05-01 10:55 | 41.41003 | 1.26332 | 11084 ft | 301 kts | 108° |
| 2026-05-01 10:55 | 41.40379 | 1.28978 | 10794 ft | 296 kts | 108° |
| 2026-05-01 10:55 | 41.39768 | 1.31565 | 10514 ft | 291 kts | 108° |
| 2026-05-01 10:56 | 41.39164 | 1.34122 | 10201 ft | 288 kts | 108° |
| 2026-05-01 10:56 | 41.38570 | 1.36643 | 10074 ft | 285 kts | 108° |
| 2026-05-01 10:56 | 41.37979 | 1.39146 | 9917 ft | 283 kts | 108° |
| 2026-05-01 10:56 | 41.37397 | 1.41611 | 9595 ft | 281 kts | 108° |
| 2026-05-01 10:57 | 41.36809 | 1.44094 | 9437 ft | 282 kts | 108° |
| 2026-05-01 10:57 | 41.36218 | 1.46578 | 9300 ft | 281 kts | 109° |
| 2026-05-01 10:57 | 41.35631 | 1.49050 | 9170 ft | 279 kts | 108° |
| 2026-05-01 10:57 | 41.35045 | 1.51505 | 9034 ft | 277 kts | 108° |
| 2026-05-01 10:58 | 41.34475 | 1.53957 | 8897 ft | 277 kts | 105° |
| 2026-05-01 10:58 | 41.34236 | 1.56494 | 8767 ft | 279 kts | 92° |
| 2026-05-01 10:58 | 41.34209 | 1.59067 | 8630 ft | 277 kts | 92° |
| 2026-05-01 10:58 | 41.34176 | 1.61621 | 8349 ft | 275 kts | 92° |
| 2026-05-01 10:59 | 41.34141 | 1.64124 | 8054 ft | 274 kts | 92° |
| 2026-05-01 10:59 | 41.34104 | 1.66636 | 7754 ft | 268 kts | 92° |
| 2026-05-01 10:59 | 41.34023 | 1.69088 | 7457 ft | 262 kts | 101° |
| 2026-05-01 10:59 | 41.33384 | 1.71299 | 7174 ft | 254 kts | 124° |
| 2026-05-01 11:00 | 41.32170 | 1.72933 | 6895 ft | 247 kts | 146° |
| 2026-05-01 11:00 | 41.30651 | 1.73936 | 6598 ft | 241 kts | 153° |
| 2026-05-01 11:00 | 41.29145 | 1.74833 | 6290 ft | 234 kts | 155° |
| 2026-05-01 11:00 | 41.27551 | 1.75190 | 5982 ft | 237 kts | 185° |
| 2026-05-01 11:01 | 41.26029 | 1.74348 | 5678 ft | 242 kts | 218° |
| 2026-05-01 11:01 | 41.25067 | 1.72532 | 5387 ft | 251 kts | 245° |
| 2026-05-01 11:01 | 41.24375 | 1.70400 | 5079 ft | 251 kts | 244° |
| 2026-05-01 11:01 | 41.23658 | 1.68298 | 4787 ft | 250 kts | 243° |
| 2026-05-01 11:02 | 41.22929 | 1.66198 | 4482 ft | 249 kts | 244° |
| 2026-05-01 11:02 | 41.22140 | 1.64160 | 4175 ft | 246 kts | 231° |
| 2026-05-01 11:02 | 41.20937 | 1.62700 | 4043 ft | 226 kts | 205° |
| 2026-05-01 11:02 | 41.19485 | 1.62046 | 3921 ft | 221 kts | 180° |
| 2026-05-01 11:03 | 41.17964 | 1.62217 | 3804 ft | 224 kts | 157° |
| 2026-05-01 11:03 | 41.16607 | 1.63198 | 3676 ft | 223 kts | 134° |
| 2026-05-01 11:03 | 41.15685 | 1.64780 | 3554 ft | 219 kts | 112° |
| 2026-05-01 11:03 | 41.15297 | 1.66704 | 3428 ft | 216 kts | 92° |
| 2026-05-01 11:04 | 41.15499 | 1.68669 | 3295 ft | 217 kts | 71° |
| 2026-05-01 11:04 | 41.16171 | 1.70461 | 3171 ft | 217 kts | 63° |
| 2026-05-01 11:04 | 41.16885 | 1.72221 | 3067 ft | 216 kts | 63° |
| 2026-05-01 11:04 | 41.17622 | 1.73963 | 2994 ft | 216 kts | 57° |
| 2026-05-01 11:05 | 41.18481 | 1.75582 | 3002 ft | 212 kts | 60° |
| 2026-05-01 11:05 | 41.19163 | 1.77293 | 3004 ft | 209 kts | 65° |
| 2026-05-01 11:05 | 41.19772 | 1.79016 | 3004 ft | 208 kts | 66° |
| 2026-05-01 11:05 | 41.20380 | 1.80769 | 3005 ft | 208 kts | 66° |
| 2026-05-01 11:06 | 41.20973 | 1.82484 | 3003 ft | 201 kts | 66° |
| 2026-05-01 11:06 | 41.21538 | 1.84115 | 3002 ft | 190 kts | 67° |
| 2026-05-01 11:06 | 41.22082 | 1.85692 | 3003 ft | 186 kts | 67° |
| 2026-05-01 11:07 | 41.23148 | 1.88778 | 2927 ft | 178 kts | 66° |
| 2026-05-01 11:07 | 41.23654 | 1.90243 | 2747 ft | 172 kts | 66° |
| 2026-05-01 11:07 | 41.24145 | 1.91666 | 2572 ft | 167 kts | 67° |
| 2026-05-01 11:07 | 41.24616 | 1.93034 | 2332 ft | 163 kts | 66° |
| 2026-05-01 11:08 | 41.25083 | 1.94388 | 2114 ft | 159 kts | 65° |
| 2026-05-01 11:08 | 41.25536 | 1.95704 | 1903 ft | 155 kts | 65° |
| 2026-05-01 11:08 | 41.26404 | 1.98225 | 1489 ft | 144 kts | 65° |
| 2026-05-01 11:09 | 41.26812 | 1.99411 | 1315 ft | 139 kts | 63° |
| 2026-05-01 11:09 | 41.27200 | 2.00543 | 1134 ft | 129 kts | 64° |
| 2026-05-01 11:09 | 41.27561 | 2.01594 | 964 ft | 121 kts | 63° |
| 2026-05-01 11:10 | 41.28233 | 2.03544 | 603 ft | 115 kts | 65° |
| 2026-05-01 11:10 | 41.28562 | 2.04504 | 482 ft | 113 kts | 68° |
| 2026-05-01 11:10 | 41.28884 | 2.05451 | 321 ft | 112 kts | 67° |
| 2026-05-01 11:10 | 41.29216 | 2.06398 | 169 ft | 113 kts | 68° |
| 2026-05-01 11:11 | 41.29542 | 2.07359 | 51 ft | 113 kts | 67° |
| 2026-05-01 11:11 | 41.29838 | 2.08231 | 21 ft | 85 kts | 65° |
| 2026-05-01 11:11 | 41.30012 | 2.08739 | 25 ft | 41 kts | 65° |
| 2026-05-01 11:11 | 41.30110 | 2.09040 | 18 ft | 31 kts | 71° |
| 2026-05-01 11:12 | 41.30132 | 2.09245 | 16 ft | 13 kts | 90° |
| 2026-05-01 11:12 | 41.30131 | 2.09320 | 15 ft | 8 kts | 93° |
| 2026-05-01 11:12 | 41.30126 | 2.09391 | 15 ft | 7 kts | 103° |
| 2026-05-01 11:12 | 41.30094 | 2.09431 | 16 ft | 6 kts | 164° |
| 2026-05-01 11:13 | 41.30055 | 2.09410 | 16 ft | 6 kts | 230° |
| 2026-05-01 11:13 | 41.30034 | 2.09350 | 18 ft | 8 kts | 245° |
| 2026-05-01 11:13 | 41.30010 | 2.09282 | 17 ft | 8 kts | 245° |
| 2026-05-01 11:13 | 41.29991 | 2.09226 | 17 ft | 6 kts | 246° |
| 2026-05-01 11:14 | 41.29972 | 2.09168 | 17 ft | 8 kts | 245° |
| 2026-05-01 11:14 | 41.29945 | 2.09091 | 19 ft | 10 kts | 246° |
| 2026-05-01 11:14 | 41.29914 | 2.09000 | 18 ft | 11 kts | 245° |
| 2026-05-01 11:14 | 41.29883 | 2.08911 | 20 ft | 11 kts | 246° |
| 2026-05-01 11:15 | 41.29851 | 2.08813 | 19 ft | 13 kts | 245° |
| 2026-05-01 11:15 | 41.29811 | 2.08700 | 18 ft | 14 kts | 245° |
| 2026-05-01 11:15 | 41.29771 | 2.08583 | 17 ft | 10 kts | 245° |
| 2026-05-01 11:15 | 41.29739 | 2.08490 | 17 ft | 11 kts | 246° |
| 2026-05-01 11:16 | 41.29707 | 2.08392 | 17 ft | 12 kts | 245° |
| 2026-05-01 11:16 | 41.29676 | 2.08303 | 19 ft | 10 kts | 245° |
| 2026-05-01 11:16 | 41.29645 | 2.08214 | 18 ft | 11 kts | 246° |
| 2026-05-01 11:16 | 41.29611 | 2.08115 | 17 ft | 10 kts | 245° |
| 2026-05-01 11:17 | 41.29578 | 2.08066 | 16 ft | 8 kts | 198° |
| 2026-05-01 11:17 | 41.29520 | 2.08096 | 18 ft | 10 kts | 155° |
| 2026-05-01 11:17 | 41.29457 | 2.08134 | 16 ft | 10 kts | 155° |
| 2026-05-01 11:17 | 41.29396 | 2.08170 | 19 ft | 8 kts | 155° |
| 2026-05-01 11:18 | 41.29351 | 2.08196 | 19 ft | 6 kts | 167° |
| 2026-05-01 11:18 | 41.29317 | 2.08170 | 21 ft | 5 kts | 214° |
| 2026-05-01 11:18 | 41.29286 | 2.08162 | 19 ft | 4 kts | 183° |
| 2026-05-01 11:18 | 41.29257 | 2.08159 | 19 ft | 3 kts | 184° |
| 2026-05-01 11:19 | 41.29240 | 2.08158 | 19 ft | 2 kts | 183° |
| 2026-05-01 11:19 | 41.29230 | 2.08157 | 19 ft | 1 kts | 183° |
| 2026-05-01 11:19 | 41.29226 | 2.08157 | 19 ft | 0 kts | 183° |